Time;durP1;ratioP1;P1;durP2;ratioP2;P2;SDS_P1;SDS_P2;PMS_P1;PMS_P2;Temp;Humidity;BMP_temperature;BMP_pressure;BME280_temperature;BME280_humidity;BME280_pressure;Samples;Min_cycle;Max_cycle;Signal;HPM_P1;HPM_P2
2023/06/02 00:01:28;;;;;;;8.85;6.00;;;15.20;99.90;;;;;;5069004;28;20064;-62
2023/06/02 00:03:55;;;;;;;7.03;5.80;;;15.10;99.90;;;;;;5063131;28;20563;-62
2023/06/02 00:06:26;;;;;;;11.95;6.47;;;15.00;99.90;;;;;;5071505;28;20048;-62
2023/06/02 00:08:52;;;;;;;10.93;6.72;;;15.00;99.90;;;;;;5071788;28;20036;-62
2023/06/02 00:11:23;;;;;;;11.73;5.80;;;14.90;99.90;;;;;;5058428;28;20468;-61
2023/06/02 00:13:49;;;;;;;9.35;6.03;;;14.90;99.90;;;;;;5070777;28;20135;-62
2023/06/02 00:16:16;;;;;;;13.32;6.35;;;14.90;99.90;;;;;;5069947;28;20047;-61
2023/06/02 00:18:43;;;;;;;8.95;5.93;;;14.80;99.90;;;;;;5056490;28;20052;-61
2023/06/02 00:21:10;;;;;;;9.60;6.72;;;14.80;99.90;;;;;;5063452;28;20051;-62
2023/06/02 00:23:37;;;;;;;11.77;6.30;;;14.80;99.90;;;;;;5071004;28;20040;-61
2023/06/02 00:26:04;;;;;;;10.10;6.38;;;14.60;99.90;;;;;;5063031;28;20043;-62
2023/06/02 00:28:31;;;;;;;;;;;14.40;99.90;;;;;;5071422;28;20044;-62
2023/06/02 00:30:58;;;;;;;12.45;6.75;;;14.20;99.90;;;;;;5069962;28;20297;-61
2023/06/02 00:33:24;;;;;;;12.25;6.40;;;14.10;99.90;;;;;;5069754;28;20040;-62
2023/06/02 00:35:52;;;;;;;13.93;6.60;;;14.10;99.90;;;;;;5071965;28;20070;-61
2023/06/02 00:38:19;;;;;;;11.30;6.22;;;14.20;99.90;;;;;;5070693;28;20512;-62
2023/06/02 00:40:46;;;;;;;8.35;5.85;;;14.20;99.90;;;;;;5068952;28;20049;-62
2023/06/02 00:43:13;;;;;;;10.25;6.50;;;14.20;99.90;;;;;;5062117;28;20052;-62
2023/06/02 00:45:39;;;;;;;12.05;6.68;;;14.30;99.90;;;;;;5071710;28;20470;-62
2023/06/02 00:48:06;;;;;;;12.25;6.72;;;14.30;99.90;;;;;;5064290;28;20131;-61
2023/06/02 00:50:33;;;;;;;9.95;6.63;;;14.30;99.90;;;;;;5065387;28;20053;-62
2023/06/02 00:53:02;;;;;;;8.98;5.70;;;14.30;99.90;;;;;;5061512;28;20596;-61
2023/06/02 00:55:30;;;;;;;10.35;6.40;;;14.30;99.90;;;;;;5064122;28;20044;-62
2023/06/02 00:58:03;;;;;;;10.70;6.72;;;14.20;99.90;;;;;;5062830;28;20075;-62
2023/06/02 01:00:36;;;;;;;12.25;6.13;;;14.20;99.90;;;;;;5063636;28;20524;-60
2023/06/02 01:03:04;;;;;;;10.65;6.40;;;14.20;99.90;;;;;;5069945;28;20079;-62
2023/06/02 01:05:31;;;;;;;12.38;6.18;;;14.20;99.90;;;;;;5069997;28;20075;-62
2023/06/02 01:08:02;;;;;;;12.65;6.80;;;14.20;99.90;;;;;;5058618;28;20056;-62
2023/06/02 01:10:30;;;;;;;9.52;6.63;;;14.20;99.90;;;;;;5066423;28;20040;-62
2023/06/02 01:12:57;;;;;;;9.30;6.47;;;14.20;99.90;;;;;;5069874;28;20459;-62
2023/06/02 01:15:24;;;;;;;;;;;14.10;99.90;;;;;;5065704;28;20037;-61
2023/06/02 01:17:53;;;;;;;9.80;6.63;;;14.10;99.90;;;;;;5057868;28;19967;-62
2023/06/02 01:20:23;;;;;;;11.88;7.05;;;14.10;99.90;;;;;;5061654;28;20537;-62
2023/06/02 01:23:15;;;;;;;13.07;6.60;;;14.00;99.90;;;;;;5057978;28;20505;-61
2023/06/02 01:25:44;;;;;;;12.57;6.60;;;13.90;99.90;;;;;;5067525;28;20048;-62
2023/06/02 01:28:11;;;;;;;9.98;6.63;;;13.80;99.90;;;;;;5068893;28;20397;-62
2023/06/02 01:30:38;;;;;;;14.50;7.00;;;13.70;99.90;;;;;;5063248;28;20051;-62
2023/06/02 01:33:24;;;;;;;12.15;6.57;;;13.70;99.90;;;;;;5060158;28;20047;-61
2023/06/02 01:35:58;;;;;;;11.20;7.13;;;13.70;99.90;;;;;;5061484;28;20506;-62
2023/06/02 01:38:28;;;;;;;15.45;7.60;;;13.70;99.90;;;;;;5067418;28;20110;-62
2023/06/02 01:41:00;;;;;;;11.85;7.55;;;13.70;99.90;;;;;;5072727;28;20143;-62
2023/06/02 01:43:29;;;;;;;12.60;7.35;;;13.60;99.90;;;;;;5065703;28;20041;-62
2023/06/02 01:45:56;;;;;;;14.85;7.10;;;13.60;99.90;;;;;;5057800;28;20033;-62
2023/06/02 01:48:23;;;;;;;;;;;13.60;99.90;;;;;;5065859;28;20071;-62
2023/06/02 01:50:50;;;;;;;13.90;7.15;;;13.60;99.90;;;;;;5074483;28;20013;-62
2023/06/02 01:53:19;;;;;;;11.10;7.03;;;13.50;99.90;;;;;;5066201;28;20119;-62
2023/06/02 01:55:47;;;;;;;15.45;6.88;;;13.40;99.90;;;;;;5072422;28;20543;-62
2023/06/02 01:58:14;;;;;;;14.10;8.30;;;13.40;99.90;;;;;;5065541;28;20050;-62
2023/06/02 02:00:41;;;;;;;9.88;6.72;;;13.40;99.90;;;;;;5072176;28;20053;-61
2023/06/02 02:03:08;;;;;;;18.52;7.72;;;13.20;99.90;;;;;;5065997;28;20040;-60
2023/06/02 02:05:35;;;;;;;13.50;8.27;;;13.20;99.90;;;;;;5069305;28;20111;-62
2023/06/02 02:08:02;;;;;;;12.85;7.50;;;13.10;99.90;;;;;;5073535;28;20060;-61
2023/06/02 02:10:29;;;;;;;16.02;7.68;;;13.00;99.90;;;;;;5065737;28;20123;-62
2023/06/02 02:12:56;;;;;;;11.43;6.75;;;13.00;99.90;;;;;;5072002;28;20401;-62
2023/06/02 02:15:27;;;;;;;10.75;6.88;;;12.90;99.90;;;;;;5062004;28;20041;-61
2023/06/02 02:17:56;;;;;;;12.40;7.35;;;12.70;99.90;;;;;;5061717;28;20433;-62
2023/06/02 02:20:23;;;;;;;11.07;7.03;;;12.70;99.90;;;;;;5074036;28;20409;-62
2023/06/02 02:22:50;;;;;;;12.25;7.03;;;12.70;99.90;;;;;;5064601;28;20135;-62
2023/06/02 02:25:17;;;;;;;17.00;7.28;;;12.70;99.90;;;;;;5074132;28;20051;-61
2023/06/02 02:27:44;;;;;;;10.82;6.68;;;12.70;99.90;;;;;;5071755;28;20048;-62
2023/06/02 02:30:11;;;;;;;11.15;7.15;;;12.70;99.90;;;;;;5069852;28;20033;-62
2023/06/02 02:32:44;;;;;;;10.50;6.93;;;12.60;99.90;;;;;;5070062;28;20036;-61
2023/06/02 02:35:12;;;;;;;10.43;7.32;;;12.60;99.90;;;;;;5057309;28;20047;-62
2023/06/02 02:37:40;;;;;;;9.60;6.43;;;12.70;99.90;;;;;;5063185;28;20045;-62
2023/06/02 02:40:18;;;;;;;12.18;7.10;;;12.70;99.90;;;;;;5067354;28;20048;-61
2023/06/02 02:42:45;;;;;;;11.80;6.28;;;12.70;99.90;;;;;;5063699;28;20045;-62
2023/06/02 02:45:12;;;;;;;13.40;6.72;;;12.70;99.90;;;;;;5073579;28;20036;-62
2023/06/02 02:47:40;;;;;;;11.73;7.40;;;12.70;99.90;;;;;;5063588;28;20076;-61
2023/06/02 02:50:07;;;;;;;10.55;7.13;;;12.70;99.90;;;;;;5068867;28;20059;-60
2023/06/02 02:52:35;;;;;;;13.73;6.88;;;12.70;99.90;;;;;;5064303;28;20033;-62
2023/06/02 02:55:04;;;;;;;11.15;7.38;;;12.70;99.90;;;;;;5069796;28;20124;-62
2023/06/02 02:57:31;;;;;;;11.05;6.95;;;12.70;99.90;;;;;;5065560;28;20076;-62
2023/06/02 02:59:58;;;;;;;11.55;7.18;;;12.60;99.90;;;;;;5071920;28;20436;-62
2023/06/02 03:02:26;;;;;;;8.95;6.47;;;12.50;99.90;;;;;;5065403;28;20049;-62
2023/06/02 03:04:53;;;;;;;12.55;7.53;;;12.50;99.90;;;;;;5066687;28;20493;-62
2023/06/02 03:07:20;;;;;;;10.88;7.35;;;12.50;99.90;;;;;;5071866;28;20048;-62
2023/06/02 03:09:48;;;;;;;14.13;7.75;;;12.50;99.90;;;;;;5064388;28;20039;-62
2023/06/02 03:12:16;;;;;;;10.77;6.90;;;12.50;99.90;;;;;;5063523;28;20064;-62
2023/06/02 03:14:43;;;;;;;12.50;7.13;;;12.50;99.90;;;;;;5069292;28;20512;-60
2023/06/02 03:17:10;;;;;;;10.02;6.97;;;12.50;99.90;;;;;;5072802;28;20116;-62
2023/06/02 03:19:37;;;;;;;10.85;7.35;;;12.50;99.90;;;;;;5070499;28;20045;-62
2023/06/02 03:22:05;;;;;;;12.25;6.82;;;12.50;99.90;;;;;;5065693;28;20048;-62
2023/06/02 03:24:33;;;;;;;11.73;7.03;;;12.50;99.90;;;;;;5066894;28;20044;-62
2023/06/02 03:27:03;;;;;;;10.45;6.32;;;12.50;99.90;;;;;;5068993;28;20131;-61
2023/06/02 03:29:30;;;;;;;10.80;7.60;;;12.40;99.90;;;;;;5068128;28;20056;-62
2023/06/02 03:31:59;;;;;;;12.75;6.68;;;12.40;99.90;;;;;;5070816;28;20052;-62
2023/06/02 03:34:29;;;;;;;14.25;6.95;;;12.40;99.90;;;;;;5067498;28;20044;-62
2023/06/02 03:37:01;;;;;;;12.80;6.97;;;12.50;99.90;;;;;;5068616;28;20669;-62
2023/06/02 03:39:28;;;;;;;14.38;7.72;;;12.50;99.90;;;;;;5067809;28;20041;-62
2023/06/02 03:41:55;;;;;;;13.90;7.53;;;12.50;99.90;;;;;;5069696;28;20086;-62
2023/06/02 03:44:22;;;;;;;13.38;7.60;;;12.50;99.90;;;;;;5067715;28;20044;-61
2023/06/02 03:46:48;;;;;;;10.63;6.80;;;12.50;99.90;;;;;;5070841;28;20094;-62
2023/06/02 03:49:17;;;;;;;13.63;7.82;;;12.50;99.90;;;;;;5069008;28;20082;-62
2023/06/02 03:51:46;;;;;;;13.75;7.20;;;12.60;99.90;;;;;;5068193;28;20040;-62
2023/06/02 03:54:13;;;;;;;13.60;8.25;;;12.60;99.90;;;;;;5070101;28;20127;-62
2023/06/02 03:56:41;;;;;;;;;;;12.60;99.90;;;;;;5053036;28;20436;-62
2023/06/02 03:59:08;;;;;;;12.63;7.53;;;12.70;99.90;;;;;;5058817;28;19921;-62
2023/06/02 04:01:35;;;;;;;10.15;6.88;;;12.60;99.90;;;;;;5053563;28;20128;-61
2023/06/02 04:04:03;;;;;;;13.27;8.18;;;12.50;99.90;;;;;;5054871;28;20069;-61
2023/06/02 04:06:30;;;;;;;16.58;8.45;;;12.40;99.90;;;;;;5054942;28;20124;-61
2023/06/02 04:08:57;;;;;;;18.60;8.43;;;12.40;99.90;;;;;;5054554;28;20077;-60
2023/06/02 04:11:25;;;;;;;11.65;7.60;;;12.40;99.90;;;;;;5053461;28;20120;-62
2023/06/02 04:13:53;;;;;;;16.10;8.93;;;12.40;99.90;;;;;;5053965;28;20378;-62
2023/06/02 04:16:21;;;;;;;12.30;7.65;;;12.40;99.90;;;;;;5053889;28;20063;-61
2023/06/02 04:18:49;;;;;;;12.55;8.23;;;12.40;99.90;;;;;;5053324;28;20044;-61
2023/06/02 04:21:15;;;;;;;12.40;9.15;;;12.50;99.90;;;;;;5054485;28;20036;-62
2023/06/02 04:23:43;;;;;;;16.67;8.95;;;12.60;99.90;;;;;;5052936;28;20405;-60
2023/06/02 04:26:10;;;;;;;14.68;9.38;;;12.70;99.90;;;;;;5054522;28;20107;-61
2023/06/02 04:28:38;;;;;;;14.95;9.30;;;12.70;99.90;;;;;;5053034;28;20037;-62
2023/06/02 04:31:07;;;;;;;17.27;11.65;;;12.80;99.90;;;;;;5054539;28;20059;-62
2023/06/02 04:33:37;;;;;;;15.98;10.38;;;12.90;99.90;;;;;;5052925;28;20056;-62
2023/06/02 04:36:07;;;;;;;25.08;11.90;;;13.00;99.90;;;;;;5057737;28;20107;-62
2023/06/02 04:38:35;;;;;;;14.85;10.45;;;13.10;99.90;;;;;;5052652;28;20044;-62
2023/06/02 04:41:06;;;;;;;17.17;10.88;;;13.20;99.90;;;;;;5050799;28;20041;-62
2023/06/02 04:43:34;;;;;;;15.65;11.00;;;13.20;99.90;;;;;;5069291;28;20417;-62
2023/06/02 04:46:06;;;;;;;17.55;10.82;;;13.30;99.90;;;;;;5061797;28;20079;-62
2023/06/02 04:48:33;;;;;;;16.80;9.98;;;13.40;99.90;;;;;;5050212;28;20496;-62
2023/06/02 04:51:00;;;;;;;17.73;11.30;;;13.40;99.90;;;;;;5062191;28;20044;-62
2023/06/02 04:53:27;;;;;;;19.45;11.00;;;13.50;99.90;;;;;;5070669;28;20106;-62
2023/06/02 04:55:56;;;;;;;17.08;10.68;;;13.50;99.90;;;;;;5067838;28;20068;-62
2023/06/02 04:58:23;;;;;;;15.32;10.75;;;13.60;99.90;;;;;;5069500;28;20053;-62
2023/06/02 05:00:50;;;;;;;21.98;10.82;;;13.70;99.90;;;;;;5070094;28;20044;-62
2023/06/02 05:03:17;;;;;;;17.10;10.70;;;13.80;99.90;;;;;;5062993;28;20067;-62
2023/06/02 05:05:44;;;;;;;14.95;10.55;;;13.80;99.90;;;;;;5071475;28;20072;-62
2023/06/02 05:08:12;;;;;;;14.40;10.10;;;13.90;99.90;;;;;;5068950;28;20033;-62
2023/06/02 05:10:39;;;;;;;17.25;10.25;;;14.00;99.90;;;;;;5068348;28;20509;-62
2023/06/02 05:13:07;;;;;;;13.93;10.25;;;14.10;99.90;;;;;;5069119;28;20047;-61
2023/06/02 05:15:34;;;;;;;15.45;8.80;;;14.20;99.90;;;;;;5072490;28;20071;-62
2023/06/02 05:18:03;;;;;;;17.00;9.82;;;14.30;99.90;;;;;;5072801;28;20090;-62
2023/06/02 05:20:30;;;;;;;18.83;10.30;;;14.40;99.90;;;;;;5076038;28;20048;-62
2023/06/02 05:22:56;;;;;;;15.85;9.15;;;14.50;99.90;;;;;;5071765;28;20036;-62
2023/06/02 05:25:23;;;;;;;15.50;10.18;;;14.60;99.90;;;;;;5066365;28;20049;-62
2023/06/02 05:27:50;;;;;;;17.00;10.07;;;14.70;99.90;;;;;;5066634;28;20090;-62
2023/06/02 05:30:17;;;;;;;14.48;10.00;;;14.80;99.90;;;;;;5065417;28;20498;-62
2023/06/02 05:32:45;;;;;;;15.57;10.00;;;14.90;99.90;;;;;;5063942;28;20033;-62
2023/06/02 05:35:12;;;;;;;15.65;10.18;;;15.00;99.90;;;;;;5070555;28;20083;-62
2023/06/02 05:37:39;;;;;;;16.35;9.85;;;15.00;99.90;;;;;;5061689;28;20061;-62
2023/06/02 05:40:08;;;;;;;12.35;9.15;;;15.10;99.90;;;;;;5064956;28;20068;-62
2023/06/02 05:42:35;;;;;;;16.25;9.80;;;15.10;99.90;;;;;;5057733;28;20037;-62
2023/06/02 05:45:05;;;;;;;13.30;9.57;;;15.30;99.90;;;;;;5059212;28;20536;-62
2023/06/02 05:47:34;;;;;;;13.07;9.30;;;15.40;99.90;;;;;;5069532;28;20040;-62
2023/06/02 05:50:02;;;;;;;17.88;9.10;;;15.50;99.90;;;;;;5072468;28;20037;-62
2023/06/02 05:52:29;;;;;;;16.48;9.57;;;15.60;99.90;;;;;;5072419;28;20555;-62
2023/06/02 05:54:56;;;;;;;15.05;8.93;;;15.70;99.90;;;;;;5069019;28;20437;-62
2023/06/02 05:57:24;;;;;;;15.77;10.00;;;15.80;99.90;;;;;;5069106;28;20124;-62
2023/06/02 05:59:51;;;;;;;18.40;9.50;;;15.70;99.90;;;;;;5061631;28;20128;-62
2023/06/02 06:02:18;;;;;;;15.68;9.77;;;15.70;99.90;;;;;;5073072;28;20382;-62
2023/06/02 06:04:44;;;;;;;17.55;9.65;;;15.70;99.90;;;;;;5063698;28;20041;-62
2023/06/02 06:07:11;;;;;;;15.98;9.50;;;15.70;99.90;;;;;;5071483;28;20511;-61
2023/06/02 06:09:38;;;;;;;15.50;9.63;;;15.80;99.90;;;;;;5071727;28;20048;-62
2023/06/02 06:12:06;;;;;;;14.77;9.70;;;15.90;99.90;;;;;;5066658;28;20067;-62
2023/06/02 06:14:33;;;;;;;18.33;9.38;;;15.90;99.90;;;;;;5072571;28;20128;-62
2023/06/02 06:17:00;;;;;;;11.93;9.55;;;15.90;99.90;;;;;;5071813;28;20036;-61
2023/06/02 06:19:29;;;;;;;15.63;9.50;;;15.80;99.90;;;;;;5073953;28;20489;-62
2023/06/02 06:21:56;;;;;;;16.83;10.65;;;15.90;99.90;;;;;;5071322;28;20106;-62
2023/06/02 06:24:24;;;;;;;15.65;8.80;;;15.90;99.90;;;;;;5069751;28;20178;-60
2023/06/02 06:26:51;;;;;;;18.58;9.35;;;16.00;99.90;;;;;;5071632;28;20044;-60
2023/06/02 06:29:18;;;;;;;17.80;8.93;;;16.10;99.90;;;;;;5066022;28;20048;-61
2023/06/02 06:31:46;;;;;;;12.77;9.02;;;16.30;99.90;;;;;;5071722;28;20067;-62
2023/06/02 06:34:13;;;;;;;13.27;8.48;;;16.40;99.90;;;;;;5070907;28;20090;-61
2023/06/02 06:36:40;;;;;;;12.35;9.27;;;16.70;99.90;;;;;;5071870;28;20032;-62
2023/06/02 06:39:07;;;;;;;12.85;9.07;;;16.90;99.90;;;;;;5053874;28;20551;-62
2023/06/02 06:41:40;;;;;;;14.30;8.68;;;17.10;99.90;;;;;;5071892;28;20041;-60
2023/06/02 06:44:11;;;;;;;11.80;7.75;;;17.20;99.90;;;;;;5072617;28;20044;-62
2023/06/02 06:46:38;;;;;;;14.27;8.93;;;17.40;99.90;;;;;;5070090;28;20049;-60
2023/06/02 06:49:05;;;;;;;14.32;8.43;;;17.60;99.90;;;;;;5071898;28;20489;-62
2023/06/02 06:51:32;;;;;;;12.70;7.95;;;17.80;99.90;;;;;;5072980;28;20041;-62
2023/06/02 06:53:59;;;;;;;11.50;7.65;;;18.00;99.90;;;;;;5063812;28;20118;-61
2023/06/02 06:56:26;;;;;;;16.98;7.82;;;18.10;99.90;;;;;;5073075;28;20033;-62
2023/06/02 06:58:53;;;;;;;9.20;7.30;;;18.30;99.90;;;;;;5067777;28;20033;-62
2023/06/02 07:01:20;;;;;;;11.13;7.97;;;18.40;99.90;;;;;;5063652;28;20123;-62
2023/06/02 07:03:46;;;;;;;16.65;7.90;;;18.40;99.90;;;;;;5072277;28;20032;-61
2023/06/02 07:06:13;;;;;;;16.38;7.32;;;18.60;99.90;;;;;;5072263;28;20044;-61
2023/06/02 07:08:40;;;;;;;15.82;8.02;;;18.50;99.90;;;;;;5063178;28;20051;-62
2023/06/02 07:11:07;;;;;;;10.90;7.28;;;18.50;99.90;;;;;;5072869;28;20132;-62
2023/06/02 07:13:34;;;;;;;10.80;7.32;;;18.30;99.90;;;;;;5071239;28;20521;-62
2023/06/02 07:16:01;;;;;;;13.52;7.65;;;18.10;99.90;;;;;;5067371;28;20405;-61
2023/06/02 07:18:28;;;;;;;12.35;8.43;;;18.30;99.90;;;;;;5071982;28;20497;-62
2023/06/02 07:20:54;;;;;;;10.35;7.93;;;18.50;99.90;;;;;;5071696;28;20036;-61
2023/06/02 07:23:21;;;;;;;12.30;8.73;;;18.80;99.90;;;;;;5070527;28;20048;-62
2023/06/02 07:25:48;;;;;;;17.95;8.77;;;18.90;99.90;;;;;;5072620;28;20032;-62
2023/06/02 07:28:15;;;;;;;13.02;8.25;;;19.20;99.90;;;;;;5071420;28;20464;-62
2023/06/02 07:30:57;;;;;;;11.15;8.07;;;19.30;99.90;;;;;;5072394;28;20041;-62
2023/06/02 07:33:35;;;;;;;12.60;9.13;;;19.40;99.90;;;;;;5061121;28;20119;-61
2023/06/02 07:36:02;;;;;;;15.00;9.38;;;19.40;99.90;;;;;;5063940;28;20548;-62
2023/06/02 07:38:29;;;;;;;12.18;8.73;;;19.50;99.90;;;;;;5060988;28;20039;-61
2023/06/02 07:40:56;;;;;;;15.07;9.13;;;19.50;99.90;;;;;;5062513;28;20131;-62
2023/06/02 07:43:22;;;;;;;12.15;8.82;;;19.50;99.90;;;;;;5071562;28;20036;-61
2023/06/02 07:45:49;;;;;;;15.63;9.60;;;19.50;99.90;;;;;;5063495;28;20052;-63
2023/06/02 07:48:16;;;;;;;14.18;9.73;;;19.60;99.90;;;;;;5064128;28;20055;-61
2023/06/02 07:50:43;;;;;;;18.02;9.20;;;19.60;99.90;;;;;;5068617;28;20501;-62
2023/06/02 07:53:10;;;;;;;16.05;9.80;;;19.60;99.90;;;;;;5071045;28;20492;-61
2023/06/02 07:55:36;;;;;;;16.27;8.93;;;19.50;99.90;;;;;;5071839;28;20043;-62
2023/06/02 07:58:03;;;;;;;13.10;9.30;;;19.60;99.90;;;;;;5068696;28;20033;-60
2023/06/02 08:00:30;;;;;;;13.90;8.57;;;19.80;99.90;;;;;;5071608;28;20047;-61
2023/06/02 08:02:57;;;;;;;12.40;9.07;;;19.90;99.90;;;;;;5071276;28;20048;-62
2023/06/02 08:05:24;;;;;;;16.52;8.57;;;20.10;99.90;;;;;;5068679;28;20048;-59
2023/06/02 08:07:50;;;;;;;12.43;8.93;;;20.10;99.90;;;;;;5069751;28;20497;-60
2023/06/02 08:10:17;;;;;;;16.73;9.40;;;20.00;99.90;;;;;;5071166;28;20086;-60
2023/06/02 08:12:44;;;;;;;15.05;9.98;;;20.20;99.90;;;;;;5069978;28;20040;-61
2023/06/02 08:15:11;;;;;;;13.73;9.27;;;20.30;99.90;;;;;;5068206;28;20043;-62
2023/06/02 08:17:38;;;;;;;16.40;9.65;;;20.30;99.90;;;;;;5071035;28;20040;-61
2023/06/02 08:20:07;;;;;;;13.63;8.32;;;20.40;99.90;;;;;;5070868;28;20083;-61
2023/06/02 08:22:34;;;;;;;13.73;9.23;;;20.50;99.90;;;;;;5071123;28;20498;-61
2023/06/02 08:25:03;;;;;;;12.88;9.18;;;20.60;99.90;;;;;;5068804;28;20048;-62
2023/06/02 08:27:30;;;;;;;13.73;9.25;;;20.60;99.90;;;;;;5070915;28;20044;-61
2023/06/02 08:29:57;;;;;;;14.43;7.78;;;20.70;99.90;;;;;;5071430;28;20040;-61
2023/06/02 08:32:24;;;;;;;12.95;8.52;;;20.80;99.90;;;;;;5070534;28;20124;-60
2023/06/02 08:34:55;;;;;;;12.15;9.25;;;20.90;99.90;;;;;;5062518;28;20047;-62
2023/06/02 08:37:22;;;;;;;12.27;9.32;;;20.90;99.90;;;;;;5070545;28;20094;-60
2023/06/02 08:39:50;;;;;;;11.48;9.30;;;20.90;99.90;;;;;;5071035;28;20048;-62
2023/06/02 08:42:17;;;;;;;15.70;8.70;;;20.90;99.90;;;;;;5064711;28;20045;-61
2023/06/02 08:44:44;;;;;;;;;;;21.10;99.90;;;;;;5071455;28;20044;-61
2023/06/02 08:47:16;;;;;;;11.52;7.82;;;21.30;99.90;;;;;;5068442;28;19920;-62
2023/06/02 08:49:45;;;;;;;14.50;8.43;;;21.40;99.90;;;;;;5070633;28;20044;-60
2023/06/02 08:52:20;;;;;;;13.88;8.27;;;21.50;99.90;;;;;;5069714;28;20388;-61
2023/06/02 08:54:48;;;;;;;12.30;8.30;;;21.70;99.90;;;;;;5064932;28;20072;-62
2023/06/02 08:57:16;;;;;;;14.02;8.68;;;21.80;99.90;;;;;;5070637;28;20037;-61
2023/06/02 08:59:44;;;;;;;11.68;7.65;;;22.00;99.90;;;;;;5070301;28;20692;-61
2023/06/02 09:02:11;;;;;;;12.73;8.10;;;22.20;99.90;;;;;;5064348;28;20045;-62
2023/06/02 09:04:38;;;;;;;14.00;8.60;;;22.30;99.90;;;;;;5070934;28;20041;-61
2023/06/02 09:07:11;;;;;;;15.13;8.50;;;22.40;99.90;;;;;;5070410;28;20529;-62
2023/06/02 09:09:46;;;;;;;14.02;8.85;;;22.40;99.90;;;;;;5063542;28;20040;-62
2023/06/02 09:12:14;;;;;;;12.98;8.55;;;22.50;99.90;;;;;;5063426;28;20037;-60
2023/06/02 09:14:41;;;;;;;15.00;8.38;;;22.50;99.90;;;;;;5070750;28;20390;-62
2023/06/02 09:17:28;;;;;;;13.57;8.45;;;22.70;99.90;;;;;;5068578;28;20040;-61
2023/06/02 09:20:09;;;;;;;12.30;8.32;;;22.80;99.90;;;;;;5070999;28;20043;-62
2023/06/02 09:22:36;;;;;;;10.25;8.20;;;22.90;99.90;;;;;;5068762;28;20408;-61
2023/06/02 09:25:21;;;;;;;14.75;8.02;;;22.90;99.90;;;;;;5070267;28;20036;-62
2023/06/02 09:27:52;;;;;;;12.73;7.50;;;23.20;99.90;;;;;;5067116;28;20075;-60
2023/06/02 09:30:19;;;;;;;11.02;7.20;;;23.30;99.90;;;;;;5068605;28;20409;-62
2023/06/02 09:32:56;;;;;;;12.07;7.28;;;23.30;99.90;;;;;;5069423;28;20366;-62
2023/06/02 09:35:40;;;;;;;11.65;7.30;;;23.50;99.90;;;;;;5070457;28;20063;-62
2023/06/02 09:38:17;;;;;;;12.98;7.40;;;23.80;99.90;;;;;;5067084;28;20037;-60
2023/06/02 09:40:44;;;;;;;10.38;7.35;;;24.00;99.90;;;;;;5070455;28;20036;-62
2023/06/02 09:43:12;;;;;;;9.60;6.80;;;24.10;99.90;;;;;;5064159;28;20032;-63
2023/06/02 09:45:59;;;;;;;13.10;6.85;;;24.10;99.90;;;;;;5070371;28;20044;-61
2023/06/02 09:48:27;;;;;;;10.25;6.45;;;24.10;99.90;;;;;;5059941;28;20113;-62
2023/06/02 09:50:55;;;;;;;11.25;6.28;;;24.20;99.90;;;;;;5068653;28;20041;-61
2023/06/02 09:53:22;;;;;;;16.15;6.00;;;24.40;98.80;;;;;;5069441;28;20041;-62
2023/06/02 09:55:50;;;;;;;9.23;6.00;;;24.50;99.10;;;;;;5067649;28;20055;-62
2023/06/02 09:58:18;;;;;;;9.68;4.88;;;24.70;99.00;;;;;;5067563;28;20048;-62
2023/06/02 10:00:45;;;;;;;10.07;4.55;;;24.60;99.60;;;;;;5071467;28;20062;-61
2023/06/02 10:03:12;;;;;;;10.15;4.53;;;24.30;96.80;;;;;;5064796;28;20036;-62
2023/06/02 10:05:48;;;;;;;8.85;4.60;;;24.00;95.80;;;;;;5074031;28;20123;-62
2023/06/02 10:08:53;;;;;;;8.60;4.15;;;24.00;97.50;;;;;;5072133;28;20041;-61
2023/06/02 10:11:32;;;;;;;8.95;4.30;;;24.00;97.10;;;;;;5020866;28;20072;-62
2023/06/02 10:14:36;;;;;;;5.68;3.90;;;24.20;96.00;;;;;;5073738;28;20039;-62
2023/06/02 10:17:15;;;;;;;6.22;3.95;;;24.10;93.30;;;;;;5032303;28;20063;-62
2023/06/02 10:20:14;;;;;;;4.60;3.55;;;24.00;94.00;;;;;;5073673;28;20068;-61
2023/06/02 10:23:04;;;;;;;7.45;3.55;;;23.90;93.10;;;;;;5034828;28;20049;-61
2023/06/02 10:25:41;;;;;;;6.22;2.72;;;23.90;92.80;;;;;;5072529;28;20067;-62
2023/06/02 10:28:08;;;;;;;11.00;3.40;;;23.90;91.50;;;;;;5067833;28;20041;-61
2023/06/02 10:30:35;;;;;;;7.63;3.28;;;24.00;92.30;;;;;;5073123;28;20507;-62
2023/06/02 10:33:02;;;;;;;7.13;3.50;;;24.00;91.20;;;;;;5072356;28;20047;-62
2023/06/02 10:35:58;;;;;;;5.43;3.17;;;24.00;90.90;;;;;;5067096;28;20489;-62
2023/06/02 10:38:27;;;;;;;8.13;3.72;;;24.10;91.70;;;;;;5071684;28;20577;-61
2023/06/02 10:40:59;;;;;;;10.93;3.47;;;24.20;91.60;;;;;;5072312;28;20481;-61
2023/06/02 10:43:26;;;;;;;5.45;3.58;;;24.20;88.90;;;;;;5064771;28;20056;-61
2023/06/02 10:46:13;;;;;;;8.57;3.30;;;24.30;92.00;;;;;;5073429;28;20314;-61
2023/06/02 10:48:41;;;;;;;6.65;3.67;;;24.30;90.80;;;;;;5068251;28;20389;-63
2023/06/02 10:51:10;;;;;;;8.88;4.50;;;24.50;87.20;;;;;;5072873;28;20471;-62
2023/06/02 10:54:02;;;;;;;5.65;3.60;;;24.50;89.00;;;;;;5072490;28;20037;-62
2023/06/02 10:56:35;;;;;;;9.18;3.67;;;24.30;89.60;;;;;;5058687;28;20049;-62
2023/06/02 10:59:03;;;;;;;8.52;3.38;;;24.40;88.40;;;;;;5068627;28;20068;-61
2023/06/02 11:01:48;;;;;;;6.68;3.42;;;24.50;89.80;;;;;;5064685;28;20051;-61
2023/06/02 11:04:26;;;;;;;9.98;3.97;;;24.60;88.00;;;;;;5072940;28;20120;-61
2023/06/02 11:07:22;;;;;;;8.45;3.75;;;24.40;87.40;;;;;;5071977;28;20044;-60
2023/06/02 11:10:29;;;;;;;7.30;3.90;;;24.60;91.70;;;;;;5069099;28;20140;-60
2023/06/02 11:12:58;;;;;;;10.45;3.90;;;24.80;89.70;;;;;;5072507;28;20032;-62
2023/06/02 11:15:25;;;;;;;14.50;3.80;;;24.70;86.50;;;;;;5059458;28;20128;-62
2023/06/02 11:17:52;;;;;;;7.20;4.18;;;24.70;87.20;;;;;;5072184;28;20038;-62
2023/06/02 11:20:19;;;;;;;5.35;3.72;;;24.70;88.00;;;;;;5072057;28;20044;-61
2023/06/02 11:22:46;;;;;;;8.82;4.32;;;24.80;89.60;;;;;;5070075;28;20471;-60
2023/06/02 11:25:16;;;;;;;8.85;4.18;;;25.00;90.60;;;;;;5072575;28;20036;-62
2023/06/02 11:27:45;;;;;;;6.97;3.67;;;25.00;88.80;;;;;;5072486;28;20040;-62
2023/06/02 11:30:14;;;;;;;5.13;3.60;;;25.00;90.00;;;;;;5064790;28;20159;-61
2023/06/02 11:32:43;;;;;;;5.90;4.05;;;25.10;90.30;;;;;;5064491;28;20112;-61
2023/06/02 11:35:10;;;;;;;7.00;3.75;;;25.00;90.10;;;;;;5065219;28;20416;-60
2023/06/02 11:37:40;;;;;;;13.88;4.40;;;25.20;90.20;;;;;;5070519;28;20036;-62
2023/06/02 11:40:12;;;;;;;6.97;4.32;;;25.30;89.60;;;;;;5068531;28;20044;-62
2023/06/02 11:42:42;;;;;;;8.60;3.88;;;25.30;85.00;;;;;;5063777;28;20665;-60
2023/06/02 11:45:20;;;;;;;6.30;4.15;;;25.40;88.60;;;;;;5064099;28;20048;-62
2023/06/02 11:47:54;;;;;;;7.78;4.03;;;25.60;88.40;;;;;;5065193;28;20040;-62
2023/06/02 11:50:21;;;;;;;5.78;4.18;;;25.90;88.60;;;;;;5069497;28;20055;-63
2023/06/02 11:52:48;;;;;;;9.48;4.15;;;26.00;88.20;;;;;;5072160;28;20029;-62
2023/06/02 11:55:15;;;;;;;8.52;4.40;;;26.10;85.70;;;;;;5072328;28;20040;-62
2023/06/02 11:57:43;;;;;;;5.13;3.67;;;26.00;83.90;;;;;;5063475;28;20071;-61
2023/06/02 12:00:15;;;;;;;11.38;4.00;;;25.90;85.40;;;;;;5072310;28;20111;-62
2023/06/02 12:02:53;;;;;;;5.15;4.28;;;26.00;86.40;;;;;;5058197;28;20047;-61
2023/06/02 12:05:30;;;;;;;9.98;3.80;;;26.10;86.00;;;;;;5071776;28;20127;-62
2023/06/02 12:08:07;;;;;;;8.38;4.15;;;25.90;84.70;;;;;;5070405;28;20115;-61
2023/06/02 12:10:34;;;;;;;6.90;4.50;;;25.60;85.00;;;;;;5070239;28;20056;-62
2023/06/02 12:13:02;;;;;;;14.32;4.40;;;25.70;83.90;;;;;;5069405;28;20037;-61
2023/06/02 12:15:33;;;;;;;7.32;4.25;;;25.60;85.20;;;;;;5071184;28;20033;-59
2023/06/02 12:18:04;;;;;;;9.77;3.75;;;25.60;85.60;;;;;;5068493;28;20074;-60
2023/06/02 12:20:41;;;;;;;5.40;4.38;;;25.70;84.90;;;;;;5071263;28;20032;-59
2023/06/02 12:23:09;;;;;;;6.80;3.80;;;25.80;86.90;;;;;;5068667;28;20045;-60
2023/06/02 12:25:37;;;;;;;5.97;4.13;;;25.90;84.30;;;;;;5070101;28;20075;-61
2023/06/02 12:28:13;;;;;;;6.03;3.88;;;26.10;85.00;;;;;;5068559;28;20501;-62
2023/06/02 12:30:40;;;;;;;8.48;3.97;;;26.00;83.70;;;;;;5067983;28;20048;-62
2023/06/02 12:33:11;;;;;;;6.07;3.90;;;25.90;84.70;;;;;;5069568;28;20047;-61
2023/06/02 12:35:39;;;;;;;12.25;4.72;;;25.90;85.20;;;;;;5068305;28;20910;-62
2023/06/02 12:38:08;;;;;;;6.03;4.18;;;26.00;86.60;;;;;;5071014;28;20116;-62
2023/06/02 12:40:37;;;;;;;5.78;4.20;;;26.00;84.20;;;;;;5070150;28;20123;-61
2023/06/02 12:43:04;;;;;;;18.35;4.28;;;25.90;83.70;;;;;;5068211;28;20064;-62
2023/06/02 12:45:32;;;;;;;6.88;3.40;;;25.60;84.90;;;;;;5065525;28;20124;-62
2023/06/02 12:48:01;;;;;;;8.13;3.67;;;25.70;85.50;;;;;;5071013;28;20112;-62
2023/06/02 12:50:29;;;;;;;5.63;3.65;;;25.90;84.10;;;;;;5070695;28;20041;-61
2023/06/02 12:52:57;;;;;;;9.25;4.55;;;26.00;84.80;;;;;;5070955;28;20443;-61